Time;durP1;ratioP1;P1;durP2;ratioP2;P2;SDS_P1;SDS_P2;PMS_P1;PMS_P2;Temp;Humidity;BMP_temperature;BMP_pressure;BME280_temperature;BME280_humidity;BME280_pressure;Samples;Min_cycle;Max_cycle;Signal;HPM_P1;HPM_P2
2021/11/27 00:02:12;;;;;;;5.97;4.15;;;;;;;3.85;78.74;96782.00;5013039;28;20064;-55
2021/11/27 00:04:45;;;;;;;5.60;4.85;;;;;;;3.85;78.11;96787.13;5014270;28;20084;-55
2021/11/27 00:07:24;;;;;;;5.78;4.80;;;;;;;3.86;78.32;96795.69;5013348;28;20040;-55
2021/11/27 00:09:59;;;;;;;5.70;4.30;;;;;;;3.85;78.67;96793.97;5012957;28;20053;-55
2021/11/27 00:12:32;;;;;;;6.07;3.85;;;;;;;3.85;78.38;96797.38;5013465;28;20124;-54
2021/11/27 00:15:11;;;;;;;5.30;3.95;;;;;;;3.78;78.78;96796.56;4996574;28;20052;-55
2021/11/27 00:17:47;;;;;;;5.82;4.15;;;;;;;3.80;78.42;96805.09;5014453;28;20041;-54
2021/11/27 00:20:26;;;;;;;3.95;3.58;;;;;;;3.83;78.46;96811.91;4996613;28;20072;-55
2021/11/27 00:23:03;;;;;;;4.28;3.83;;;;;;;3.80;78.86;96811.97;5012818;28;20124;-55
2021/11/27 00:25:39;;;;;;;5.65;3.78;;;;;;;3.80;78.17;96802.53;4996805;28;20571;-55
2021/11/27 00:28:15;;;;;;;6.13;4.55;;;;;;;3.83;78.54;96809.34;4996516;28;20140;-54
2021/11/27 00:31:02;;;;;;;4.28;3.88;;;;;;;3.80;78.35;96806.84;4996200;28;20405;-54
2021/11/27 00:33:48;;;;;;;5.80;4.57;;;;;;;3.83;78.62;96809.34;5012791;28;20033;-54
2021/11/27 00:36:24;;;;;;;5.00;4.17;;;;;;;3.83;78.29;96809.34;4996040;28;20033;-55
2021/11/27 00:39:08;;;;;;;5.38;4.25;;;;;;;3.80;78.68;96810.22;5014081;28;20038;-54
2021/11/27 00:41:41;;;;;;;6.25;4.47;;;;;;;3.82;78.44;96817.88;4996571;28;20449;-55
2021/11/27 00:44:24;;;;;;;6.00;4.60;;;;;;;3.79;77.99;96815.38;5013043;28;20042;-54
2021/11/27 00:47:06;;;;;;;4.88;4.15;;;;;;;3.79;78.22;96818.78;5013953;28;20046;-55
2021/11/27 00:49:40;;;;;;;6.55;4.75;;;;;;;3.82;78.58;96812.75;5012760;28;20042;-55
2021/11/27 00:52:12;;;;;;;6.82;4.90;;;;;;;3.84;78.15;96826.41;5013920;28;20034;-56
2021/11/27 00:54:46;;;;;;;7.70;5.85;;;;;;;3.85;78.49;96827.28;4996002;28;20038;-54
2021/11/27 00:57:28;;;;;;;6.75;5.10;;;;;;;3.86;78.62;96831.53;4996160;28;20493;-54
2021/11/27 01:00:04;;;;;;;5.75;4.82;;;;;;;3.84;78.45;96834.09;5012803;28;20033;-55
2021/11/27 01:02:39;;;;;;;6.03;4.63;;;;;;;3.84;78.55;96826.41;5012117;28;20121;-54
2021/11/27 01:05:19;;;;;;;8.10;6.00;;;;;;;3.83;78.18;96837.53;5012265;28;20493;-55
2021/11/27 01:07:58;;;;;;;6.07;5.18;;;;;;;3.84;78.04;96838.38;5013701;28;20108;-55
2021/11/27 01:10:41;;;;;;;8.27;4.53;;;;;;;3.84;78.43;96833.28;5012382;28;20088;-55
2021/11/27 01:13:18;;;;;;;8.07;4.32;;;;;;;3.83;78.36;96831.56;5012453;28;20121;-54
2021/11/27 01:15:57;;;;;;;7.93;4.47;;;;;;;3.84;78.53;96828.16;5013340;28;20401;-55
2021/11/27 01:18:37;;;;;;;6.22;4.72;;;;;;;3.85;78.35;96823.00;5012087;28;20389;-55
2021/11/27 01:21:18;;;;;;;6.25;4.88;;;;;;;3.86;78.36;96832.38;5012431;28;20038;-56
2021/11/27 01:23:59;;;;;;;7.75;4.53;;;;;;;3.88;78.08;96829.81;4995983;28;20041;-55
2021/11/27 01:26:45;;;;;;;5.13;4.20;;;;;;;3.88;78.50;96822.97;5012164;28;20036;-54
2021/11/27 01:29:27;;;;;;;5.13;4.40;;;;;;;3.88;78.55;96828.09;5011906;28;20072;-55
2021/11/27 01:32:03;;;;;;;5.88;4.07;;;;;;;3.90;78.22;96822.94;4996082;28;20038;-56
2021/11/27 01:34:47;;;;;;;5.50;4.22;;;;;;;3.90;78.48;96828.06;5014797;28;20034;-55
2021/11/27 01:37:26;;;;;;;5.15;4.18;;;;;;;3.92;78.01;96823.78;5016104;28;20061;-55
2021/11/27 01:40:07;;;;;;;4.28;3.83;;;;;;;3.91;78.95;96833.19;4999651;28;20052;-55
2021/11/27 01:42:41;;;;;;;5.00;3.83;;;;;;;3.92;78.23;96829.78;5015841;28;20099;-54
2021/11/27 01:45:20;;;;;;;4.70;3.45;;;;;;;3.93;78.46;96831.47;5015500;28;20421;-55
2021/11/27 01:48:02;;;;;;;5.28;4.38;;;;;;;3.94;78.64;96838.31;4999804;28;20044;-55
2021/11/27 01:50:42;;;;;;;6.70;3.67;;;;;;;3.94;78.34;96834.88;5015685;28;20042;-55
2021/11/27 01:53:22;;;;;;;3.88;3.38;;;;;;;3.94;78.40;96840.88;5016810;28;20045;-55
2021/11/27 01:55:54;;;;;;;3.88;3.47;;;;;;;3.95;78.82;96846.81;5016764;28;20050;-55
2021/11/27 01:58:36;;;;;;;;;;;;;;;3.94;78.52;96850.25;5017270;28;20030;-55
2021/11/27 02:01:18;;;;;;;4.13;3.72;;;;;;;3.92;78.42;96847.72;5015391;28;20005;-55
2021/11/27 02:03:58;;;;;;;3.90;3.50;;;;;;;3.93;78.12;96857.09;5016581;28;20393;-55
2021/11/27 02:06:38;;;;;;;4.35;3.17;;;;;;;3.93;78.54;96849.41;5015293;28;20034;-55
2021/11/27 02:09:23;;;;;;;5.05;3.47;;;;;;;3.93;78.07;96851.97;5015469;28;20042;-55
2021/11/27 02:12:02;;;;;;;3.78;2.90;;;;;;;3.92;78.70;96857.09;5016508;28;20096;-54
2021/11/27 02:14:33;;;;;;;4.10;3.47;;;;;;;3.93;78.15;96862.22;5016240;28;20045;-55
2021/11/27 02:17:13;;;;;;;5.70;3.58;;;;;;;3.93;78.34;96864.78;5016148;28;20038;-55
2021/11/27 02:19:54;;;;;;;3.97;3.25;;;;;;;3.92;78.59;96857.09;5014891;28;20057;-56
2021/11/27 02:22:30;;;;;;;5.50;3.97;;;;;;;3.93;78.58;96851.13;5015094;28;20049;-55
2021/11/27 02:25:08;;;;;;;4.95;3.78;;;;;;;3.94;78.38;96860.50;5014827;28;20030;-55
2021/11/27 02:27:53;;;;;;;4.18;3.75;;;;;;;3.94;78.43;96855.38;5016268;28;20042;-55
2021/11/27 02:30:31;;;;;;;4.03;3.63;;;;;;;3.95;78.49;96864.75;5015026;28;20120;-54
2021/11/27 02:33:13;;;;;;;4.70;3.75;;;;;;;3.94;78.08;96856.25;5015069;28;20046;-55
2021/11/27 02:35:48;;;;;;;4.10;3.70;;;;;;;3.94;78.59;96858.81;4998238;28;20041;-55
2021/11/27 02:38:27;;;;;;;4.05;3.38;;;;;;;3.95;78.10;96855.38;5015975;28;20042;-55
2021/11/27 02:41:05;;;;;;;5.00;4.00;;;;;;;3.97;78.40;96860.47;5016327;28;20092;-55
2021/11/27 02:43:42;;;;;;;5.80;4.70;;;;;;;3.95;78.65;96852.81;5014651;28;20037;-55
2021/11/27 02:46:27;;;;;;;7.20;4.32;;;;;;;3.94;78.39;96842.56;5013572;28;20072;-55
2021/11/27 02:49:04;;;;;;;6.60;4.72;;;;;;;3.95;78.37;96849.38;4998515;28;20041;-54
2021/11/27 02:51:48;;;;;;;5.28;4.72;;;;;;;3.95;78.53;96847.69;5014361;28;20444;-54
2021/11/27 02:54:26;;;;;;;4.82;4.43;;;;;;;3.95;78.53;96849.38;5014327;28;20066;-55
2021/11/27 02:57:02;;;;;;;6.90;4.95;;;;;;;3.95;78.31;96842.56;5015854;28;20034;-55
2021/11/27 02:59:31;;;;;;;7.70;5.25;;;;;;;3.96;77.94;96844.28;5015628;28;20034;-55
2021/11/27 03:02:09;;;;;;;4.63;4.15;;;;;;;3.95;77.99;96847.69;5013781;28;20053;-55
2021/11/27 03:04:45;;;;;;;5.68;5.07;;;;;;;3.94;78.31;96843.44;5014167;28;20041;-55
2021/11/27 03:07:19;;;;;;;5.97;5.28;;;;;;;3.94;78.14;96847.69;5014278;28;20038;-55
2021/11/27 03:09:58;;;;;;;7.55;5.40;;;;;;;3.93;78.06;96844.28;5015426;28;20042;-54
2021/11/27 03:12:33;;;;;;;5.85;5.13;;;;;;;3.93;78.30;96851.97;5015243;28;20045;-54
2021/11/27 03:15:16;;;;;;;8.38;4.93;;;;;;;3.93;78.22;96841.72;5015062;28;20038;-54
2021/11/27 03:17:53;;;;;;;6.28;5.03;;;;;;;3.93;78.29;96845.97;5014115;28;20497;-55
2021/11/27 03:20:23;;;;;;;5.70;5.10;;;;;;;3.94;78.41;96852.81;5014944;28;20030;-54
2021/11/27 03:22:54;;;;;;;5.80;5.20;;;;;;;3.94;78.05;96860.50;5015159;28;20045;-55
2021/11/27 03:25:30;;;;;;;7.20;4.95;;;;;;;3.93;77.72;96857.09;4997325;28;20044;-55
2021/11/27 03:28:06;;;;;;;6.10;5.03;;;;;;;3.94;78.66;96863.94;5015188;28;20041;-55
2021/11/27 03:30:43;;;;;;;6.47;5.70;;;;;;;3.93;78.32;96858.78;5013651;28;20077;-55
2021/11/27 03:33:22;;;;;;;6.63;5.88;;;;;;;3.91;78.15;96858.81;5014726;28;20121;-55
2021/11/27 03:35:54;;;;;;;7.53;6.55;;;;;;;3.91;78.15;96869.06;5013488;28;20421;-54
2021/11/27 03:38:30;;;;;;;6.60;5.95;;;;;;;3.90;78.42;96869.94;5014967;28;20046;-55
2021/11/27 03:41:06;;;;;;;6.88;6.03;;;;;;;3.89;78.53;96870.78;5013886;28;20038;-55
2021/11/27 03:43:47;;;;;;;7.60;5.82;;;;;;;3.89;78.61;96878.47;5013640;28;20056;-55
2021/11/27 03:46:18;;;;;;;6.82;6.10;;;;;;;3.88;78.06;96874.22;4997145;28;20044;-55
2021/11/27 03:49:02;;;;;;;9.05;6.60;;;;;;;3.81;78.14;96875.97;5013695;28;20046;-54
2021/11/27 03:51:41;;;;;;;8.55;6.57;;;;;;;3.83;78.18;96891.31;5014686;28;20125;-55
2021/11/27 03:54:12;;;;;;;8.68;5.80;;;;;;;3.81;78.59;96895.63;5013117;28;20077;-55
2021/11/27 03:56:52;;;;;;;9.23;7.20;;;;;;;3.79;78.28;96893.06;5012963;28;20030;-56
2021/11/27 03:59:29;;;;;;;10.80;6.63;;;;;;;3.80;77.94;96888.81;5014839;28;20042;-55
2021/11/27 04:02:06;;;;;;;9.38;6.38;;;;;;;3.81;78.38;96893.06;5014282;28;20057;-54
2021/11/27 04:04:42;;;;;;;10.50;7.28;;;;;;;3.83;78.24;96895.63;5014546;28;20034;-56
2021/11/27 04:07:18;;;;;;;8.07;7.28;;;;;;;3.82;78.19;96894.75;4996645;28;20076;-55
2021/11/27 04:09:58;;;;;;;13.63;7.57;;;;;;;3.84;78.09;96900.72;4996824;28;20034;-54
2021/11/27 04:12:34;;;;;;;10.63;7.13;;;;;;;3.85;78.65;96899.03;5014466;28;20034;-55
2021/11/27 04:15:16;;;;;;;10.40;6.68;;;;;;;3.84;78.25;96900.72;5014641;28;20050;-55
2021/11/27 04:17:55;;;;;;;13.52;7.88;;;;;;;3.85;78.23;96896.47;4996356;28;20034;-55
2021/11/27 04:20:37;;;;;;;9.15;7.25;;;;;;;3.84;78.15;96887.91;5014084;28;20061;-55
2021/11/27 04:23:16;;;;;;;12.50;7.85;;;;;;;3.85;77.65;96896.47;5013197;28;20393;-55
2021/11/27 04:25:50;;;;;;;11.43;7.80;;;;;;;3.84;78.29;96893.03;5012755;28;20485;-56
2021/11/27 04:28:26;;;;;;;11.13;8.63;;;;;;;3.84;77.76;96892.19;4996340;28;20042;-54
2021/11/27 04:31:09;;;;;;;10.55;8.40;;;;;;;3.83;78.61;96893.88;4996198;28;20038;-55
2021/11/27 04:33:48;;;;;;;10.85;8.70;;;;;;;3.84;78.28;96903.28;5014035;28;20081;-55
2021/11/27 04:36:23;;;;;;;11.35;9.00;;;;;;;3.84;78.28;96905.84;5012625;28;20044;-55
2021/11/27 04:39:02;;;;;;;13.80;8.35;;;;;;;3.84;77.89;96905.84;5013751;28;20504;-55
2021/11/27 04:41:41;;;;;;;12.98;7.97;;;;;;;3.85;78.04;96902.41;5012636;28;20536;-55
2021/11/27 04:44:18;;;;;;;9.90;7.57;;;;;;;3.85;78.20;96915.22;5013628;28;20400;-55
2021/11/27 04:46:59;;;;;;;12.90;7.97;;;;;;;3.84;78.38;96908.41;5013778;28;20030;-55
2021/11/27 04:49:33;;;;;;;10.65;8.20;;;;;;;3.85;78.47;96909.28;5013704;28;20500;-55
2021/11/27 04:52:13;;;;;;;10.07;7.32;;;;;;;3.86;78.21;96908.41;5013883;28;20041;-55
2021/11/27 04:54:52;;;;;;;12.00;8.23;;;;;;;3.86;77.76;96916.94;5012694;28;20069;-56
2021/11/27 04:57:29;;;;;;;10.55;7.25;;;;;;;3.84;78.28;96917.81;5013628;28;20083;-54
2021/11/27 05:00:05;;;;;;;11.05;8.52;;;;;;;3.84;78.42;96922.94;5013893;28;20049;-55
2021/11/27 05:02:48;;;;;;;11.95;7.15;;;;;;;3.81;78.32;96922.09;4996573;28;20054;-55
2021/11/27 05:05:25;;;;;;;14.25;7.43;;;;;;;3.81;78.24;96922.09;5012650;28;20038;-54
2021/11/27 05:08:02;;;;;;;12.55;8.73;;;;;;;3.80;78.13;96922.94;5012293;28;20073;-56
2021/11/27 05:10:39;;;;;;;11.00;7.65;;;;;;;3.79;77.60;96930.66;5017494;28;20433;-56
2021/11/27 05:13:16;;;;;;;16.13;8.27;;;;;;;3.76;78.11;96931.50;5016191;28;20037;-55
2021/11/27 05:15:59;;;;;;;15.48;8.00;;;;;;;3.76;78.16;96936.63;5016457;28;20045;-55
2021/11/27 05:18:43;;;;;;;13.45;8.65;;;;;;;3.74;78.26;96935.78;5017330;28;20084;-54
2021/11/27 05:21:22;;;;;;;12.73;8.38;;;;;;;3.73;78.09;96929.00;5016148;28;20065;-55
2021/11/27 05:24:01;;;;;;;13.65;8.85;;;;;;;3.73;78.51;96925.56;4999770;28;20073;-55
2021/11/27 05:26:44;;;;;;;15.00;8.52;;;;;;;3.73;78.53;96921.31;5015908;28;20442;-55
2021/11/27 05:29:20;;;;;;;15.75;9.88;;;;;;;3.73;78.44;96928.13;5017189;28;20491;-54
2021/11/27 05:32:00;;;;;;;14.20;8.40;;;;;;;3.73;78.30;96928.13;5017104;28;20116;-55
2021/11/27 05:34:41;;;;;;;13.50;8.93;;;;;;;3.71;78.11;96929.84;4999639;28;20031;-55
2021/11/27 05:37:17;;;;;;;18.17;9.00;;;;;;;3.71;78.51;96935.84;5015843;28;20375;-55
2021/11/27 05:40:02;;;;;;;16.98;9.23;;;;;;;3.72;77.92;96936.66;4999324;28;20042;-55
2021/11/27 05:42:45;;;;;;;12.20;7.88;;;;;;;3.72;78.39;96941.78;5016284;28;20034;-55
2021/11/27 05:45:28;;;;;;;15.32;8.85;;;;;;;3.70;78.22;96946.06;5016082;28;20037;-55
2021/11/27 05:48:05;;;;;;;14.65;8.20;;;;;;;3.69;77.96;96952.91;5016825;28;20041;-55
2021/11/27 05:50:39;;;;;;;14.05;8.80;;;;;;;3.69;78.16;96952.06;5015806;28;20065;-55
2021/11/27 05:53:18;;;;;;;11.65;8.00;;;;;;;3.71;78.23;96955.47;5015580;28;20041;-55
2021/11/27 05:55:58;;;;;;;17.08;9.10;;;;;;;3.71;78.00;96956.31;4998913;28;20073;-54
2021/11/27 05:58:33;;;;;;;12.02;8.23;;;;;;;3.71;78.44;96964.00;5015520;28;20037;-56
2021/11/27 06:01:09;;;;;;;14.48;9.32;;;;;;;3.72;78.37;96975.09;5016882;28;20042;-55
2021/11/27 06:03:42;;;;;;;15.38;8.52;;;;;;;3.73;77.89;96976.78;5016701;28;20053;-55
2021/11/27 06:06:21;;;;;;;13.60;9.67;;;;;;;3.72;77.88;96977.66;5015620;28;20042;-54
2021/11/27 06:09:00;;;;;;;14.43;8.88;;;;;;;3.72;77.96;96977.66;4998941;28;20722;-54
2021/11/27 06:11:40;;;;;;;17.92;9.30;;;;;;;3.70;77.60;96976.81;5014883;28;20469;-55
2021/11/27 06:14:19;;;;;;;22.73;10.45;;;;;;;3.66;78.11;96981.09;4998604;28;20033;-55
2021/11/27 06:17:03;;;;;;;13.93;8.88;;;;;;;3.63;77.72;96992.22;5015079;28;20114;-55
2021/11/27 06:19:45;;;;;;;18.83;9.57;;;;;;;3.61;78.10;96999.06;5014774;28;20041;-55
2021/11/27 06:22:21;;;;;;;18.13;10.02;;;;;;;3.61;77.69;96993.06;5016093;28;20292;-55
2021/11/27 06:25:00;;;;;;;17.05;9.52;;;;;;;3.63;78.50;96999.03;4998787;28;20409;-54
2021/11/27 06:27:44;;;;;;;18.73;9.43;;;;;;;3.62;77.87;97005.03;5014881;28;20489;-55
2021/11/27 06:30:24;;;;;;;12.13;10.02;;;;;;;3.63;78.19;97009.28;5015849;28;20037;-54
2021/11/27 06:33:07;;;;;;;11.77;9.15;;;;;;;3.64;77.96;97013.56;5014831;28;20559;-55
2021/11/27 06:35:46;;;;;;;14.25;8.98;;;;;;;3.64;77.96;97013.56;5015883;28;20061;-55
2021/11/27 06:38:23;;;;;;;16.70;8.27;;;;;;;3.64;78.66;97013.56;5014956;28;20054;-55
2021/11/27 06:40:57;;;;;;;16.70;9.98;;;;;;;3.65;78.16;97015.25;5016091;28;20033;-55
2021/11/27 06:43:37;;;;;;;;;;;;;;;3.65;77.54;97028.94;5016352;28;20056;-54
2021/11/27 06:46:02;;;;;;;16.02;9.65;;;;;;;3.64;77.69;97026.38;5015753;28;20288;-55
2021/11/27 06:48:33;;;;;;;15.00;9.10;;;;;;;3.63;77.68;97033.22;5015507;28;20033;-55
2021/11/27 06:51:10;;;;;;;18.13;10.43;;;;;;;3.64;78.63;97034.03;5015825;28;20064;-55
2021/11/27 06:53:46;;;;;;;15.45;9.30;;;;;;;3.62;77.89;97034.06;5015596;28;20030;-55
2021/11/27 06:56:23;;;;;;;16.65;9.27;;;;;;;3.63;77.97;97042.59;5014456;28;20433;-55
2021/11/27 06:58:59;;;;;;;16.98;8.70;;;;;;;3.64;77.93;97051.97;5015733;28;20065;-54
2021/11/27 07:01:33;;;;;;;12.98;7.97;;;;;;;3.63;77.68;97056.25;5015732;28;20038;-54
2021/11/27 07:04:12;;;;;;;13.60;9.18;;;;;;;3.63;78.04;97051.13;5014312;28;20049;-55
2021/11/27 07:06:56;;;;;;;14.30;8.73;;;;;;;3.62;78.06;97059.69;5014553;28;20041;-54
2021/11/27 07:09:34;;;;;;;16.58;9.27;;;;;;;3.63;77.88;97068.19;5013986;28;20420;-55
2021/11/27 07:12:10;;;;;;;17.23;9.05;;;;;;;3.63;77.78;97063.94;5013785;28;20061;-55
2021/11/27 07:14:50;;;;;;;17.65;9.27;;;;;;;3.62;78.06;97066.50;5014202;28;20121;-55
2021/11/27 07:17:30;;;;;;;14.35;9.93;;;;;;;3.62;77.69;97071.63;5013906;28;20026;-54
2021/11/27 07:20:09;;;;;;;21.98;10.90;;;;;;;3.61;78.22;97075.03;5014203;28;20038;-54
2021/11/27 07:22:50;;;;;;;14.48;9.23;;;;;;;3.61;77.82;97082.72;4998026;28;20057;-54
2021/11/27 07:25:31;;;;;;;15.30;8.80;;;;;;;3.60;78.07;97089.56;5013761;28;20516;-54
2021/11/27 07:28:17;;;;;;;16.52;9.52;;;;;;;3.61;77.72;97087.84;5014060;28;20034;-55
2021/11/27 07:31:01;;;;;;;14.73;10.18;;;;;;;3.61;78.07;97096.41;5013245;28;20505;-55
2021/11/27 07:33:38;;;;;;;14.43;8.05;;;;;;;3.60;78.36;97102.38;4997359;28;20603;-54
2021/11/27 07:36:17;;;;;;;12.70;8.07;;;;;;;3.60;77.55;97110.06;4997089;28;20048;-55
2021/11/27 07:38:54;;;;;;;13.80;9.32;;;;;;;3.59;78.19;97107.47;4997145;28;20034;-54
2021/11/27 07:41:33;;;;;;;19.85;9.32;;;;;;;3.54;78.03;97115.19;5014898;28;20042;-55
2021/11/27 07:44:15;;;;;;;13.25;9.27;;;;;;;3.53;77.49;97115.19;4997290;28;20038;-54
2021/11/27 07:46:56;;;;;;;12.40;9.55;;;;;;;3.51;77.57;97120.31;4996831;28;20527;-55
2021/11/27 07:49:28;;;;;;;17.30;8.75;;;;;;;3.49;77.89;97122.88;4997687;28;20040;-55
2021/11/27 07:52:08;;;;;;;22.83;8.50;;;;;;;3.47;77.86;97134.84;4997196;28;20490;-54
2021/11/27 07:54:50;;;;;;;18.65;8.73;;;;;;;3.47;77.60;97134.00;5013546;28;20115;-54
2021/11/27 07:57:30;;;;;;;24.85;9.82;;;;;;;3.45;77.42;97145.94;5013046;28;20497;-55
2021/11/27 08:00:10;;;;;;;14.43;8.68;;;;;;;3.44;78.15;97150.19;5014587;28;20069;-55
2021/11/27 08:02:49;;;;;;;19.83;7.78;;;;;;;3.45;77.63;97161.31;5014250;28;20049;-54
2021/11/27 08:05:28;;;;;;;13.65;9.02;;;;;;;3.42;77.87;97169.00;5013124;28;20044;-55
2021/11/27 08:08:07;;;;;;;16.95;8.38;;;;;;;3.41;77.70;97162.16;5014169;28;20049;-54
2021/11/27 08:10:49;;;;;;;14.30;7.18;;;;;;;3.41;77.73;97164.72;5012851;28;20088;-55
2021/11/27 08:13:26;;;;;;;16.05;8.35;;;;;;;3.42;77.40;97164.75;5012739;28;20042;-56
2021/11/27 08:16:00;;;;;;;14.02;8.63;;;;;;;3.43;77.68;97168.13;5013497;28;20045;-54
2021/11/27 08:18:40;;;;;;;20.05;9.10;;;;;;;3.42;77.58;97169.00;5013055;28;20045;-54
2021/11/27 08:21:17;;;;;;;16.42;8.18;;;;;;;3.42;77.82;97167.31;5013213;28;20052;-54
2021/11/27 08:23:58;;;;;;;13.55;8.10;;;;;;;3.41;77.56;97173.28;5014294;28;20385;-54
2021/11/27 08:26:38;;;;;;;13.75;8.63;;;;;;;3.41;77.31;97172.41;4996487;28;20026;-54
2021/11/27 08:29:18;;;;;;;12.07;7.82;;;;;;;3.39;77.67;97172.41;5012481;28;20559;-54
2021/11/27 08:31:52;;;;;;;11.85;8.27;;;;;;;3.38;77.59;97173.28;5013877;28;20053;-54
2021/11/27 08:34:17;;;;;;;;;;;;;;;3.36;77.21;97180.09;5014386;28;20030;-54
2021/11/27 08:36:54;;;;;;;15.27;7.60;;;;;;;3.35;77.83;97194.59;5013760;28;19923;-55
2021/11/27 08:39:30;;;;;;;16.77;7.65;;;;;;;3.28;77.75;97198.03;5013872;28;20509;-54
2021/11/27 08:42:07;;;;;;;12.32;7.85;;;;;;;3.32;77.95;97202.28;4996829;28;20485;-55
2021/11/27 08:44:44;;;;;;;11.85;7.65;;;;;;;3.31;77.98;97215.09;5012771;28;20041;-54
2021/11/27 08:47:17;;;;;;;13.20;7.95;;;;;;;3.29;77.60;97209.09;5014280;28;20121;-54
2021/11/27 08:49:56;;;;;;;12.77;8.25;;;;;;;3.32;77.90;97220.22;5012715;28;20034;-55
2021/11/27 08:52:30;;;;;;;13.15;8.20;;;;;;;3.34;78.13;97226.19;4996489;28;20045;-55
2021/11/27 08:55:12;;;;;;;12.50;8.05;;;;;;;3.37;77.92;97229.59;5012700;28;20038;-55
2021/11/27 08:57:51;;;;;;;15.15;7.57;;;;;;;3.36;77.66;97226.19;5012520;28;20045;-55
2021/11/27 09:00:30;;;;;;;14.98;8.27;;;;;;;3.36;77.51;97228.75;4996774;28;20127;-55
2021/11/27 09:03:04;;;;;;;15.23;7.70;;;;;;;3.35;77.45;97233.00;5013382;28;20128;-54
2021/11/27 09:05:47;;;;;;;11.68;7.10;;;;;;;3.34;77.54;97233.00;5012374;28;20033;-55
2021/11/27 09:08:24;;;;;;;10.45;6.22;;;;;;;3.34;77.63;97241.56;5013598;28;20121;-54
2021/11/27 09:11:00;;;;;;;13.13;6.78;;;;;;;3.35;77.60;97243.22;5013569;28;20125;-54
2021/11/27 09:13:32;;;;;;;12.98;7.18;;;;;;;3.35;78.05;97243.22;5012095;28;20049;-55
2021/11/27 09:16:12;;;;;;;14.95;6.32;;;;;;;3.34;77.76;97241.56;5011999;28;20562;-54
2021/11/27 09:18:43;;;;;;;8.93;5.85;;;;;;;3.34;77.55;97243.25;5013735;28;20117;-54
2021/11/27 09:21:26;;;;;;;10.57;6.30;;;;;;;3.32;77.42;97248.38;4995751;28;20065;-54
2021/11/27 09:23:56;;;;;;;11.07;6.57;;;;;;;3.29;77.50;97258.63;5013762;28;20069;-55
2021/11/27 09:26:25;;;;;;;17.85;7.47;;;;;;;3.27;77.61;97260.31;5012324;28;20038;-54
2021/11/27 09:28:54;;;;;;;12.90;6.78;;;;;;;3.28;77.58;97268.84;5012255;28;20048;-55
2021/11/27 09:31:25;;;;;;;13.00;6.70;;;;;;;3.27;77.17;97269.72;5013196;28;20060;-54
2021/11/27 09:33:53;;;;;;;14.65;6.28;;;;;;;3.26;77.87;97273.97;5012934;28;20038;-54
2021/11/27 09:36:24;;;;;;;12.13;7.28;;;;;;;3.24;77.79;97283.34;4995371;28;20041;-55
2021/11/27 09:38:57;;;;;;;11.07;6.32;;;;;;;3.26;77.19;97278.25;5012329;28;20437;-55
2021/11/27 09:41:32;;;;;;;11.38;6.70;;;;;;;3.26;77.34;97288.47;5012138;28;20034;-56
2021/11/27 09:44:10;;;;;;;16.73;7.00;;;;;;;3.24;77.40;97293.59;5013127;28;20041;-55
2021/11/27 09:46:42;;;;;;;9.23;6.03;;;;;;;3.25;77.58;97294.47;5012909;28;20042;-54
2021/11/27 09:49:19;;;;;;;12.60;7.40;;;;;;;3.23;77.47;97301.28;5012213;28;20458;-55
2021/11/27 09:51:50;;;;;;;12.18;6.72;;;;;;;3.23;77.54;97297.00;5012156;28;20041;-54
2021/11/27 09:54:19;;;;;;;15.45;6.20;;;;;;;3.23;77.45;97303.84;5012687;28;20038;-54
2021/11/27 09:56:49;;;;;;;13.82;6.03;;;;;;;3.23;77.58;97298.72;5015290;28;20061;-55
2021/11/27 09:59:20;;;;;;;10.48;6.22;;;;;;;3.24;76.98;97303.81;5016810;28;20044;-55
2021/11/27 10:01:53;;;;;;;14.93;6.32;;;;;;;3.24;77.23;97311.50;5016658;28;20046;-55
2021/11/27 10:04:21;;;;;;;11.20;5.85;;;;;;;3.24;77.43;97310.66;5015380;28;20030;-55
2021/11/27 10:06:51;;;;;;;14.57;6.80;;;;;;;3.25;77.67;97318.34;4998847;28;20041;-56
2021/11/27 10:09:23;;;;;;;12.70;6.07;;;;;;;3.28;77.98;97312.34;5015505;28;20061;-55
2021/11/27 10:11:54;;;;;;;15.55;7.00;;;;;;;3.31;77.48;97315.78;4998384;28;20132;-55
2021/11/27 10:14:25;;;;;;;14.40;6.85;;;;;;;3.34;77.55;97320.06;5015571;28;20034;-55
2021/11/27 10:17:03;;;;;;;11.88;6.43;;;;;;;3.36;77.06;97313.22;5016152;28;20033;-55
2021/11/27 10:19:44;;;;;;;14.00;6.75;;;;;;;3.37;77.62;97321.75;5015047;28;20041;-55
2021/11/27 10:22:12;;;;;;;11.40;6.68;;;;;;;3.40;77.66;97327.75;5015514;28;20469;-55
2021/11/27 10:24:47;;;;;;;12.70;5.70;;;;;;;3.43;77.15;97322.63;5015128;28;20485;-55
2021/11/27 10:27:28;;;;;;;10.68;6.28;;;;;;;3.45;77.06;97325.19;5016382;28;20041;-55
2021/11/27 10:30:12;;;;;;;13.55;6.25;;;;;;;3.46;77.56;97325.19;4998456;28;20083;-54
2021/11/27 10:32:44;;;;;;;15.13;6.00;;;;;;;3.48;77.62;97322.63;5015324;28;20377;-55
2021/11/27 10:35:21;;;;;;;10.93;5.95;;;;;;;3.48;77.24;97320.09;5015061;28;20038;-55
2021/11/27 10:37:53;;;;;;;9.77;5.85;;;;;;;3.48;77.64;97315.78;5014940;28;20492;-55
2021/11/27 10:40:25;;;;;;;16.42;6.05;;;;;;;3.48;77.69;97314.97;4998602;28;20038;-55
2021/11/27 10:43:00;;;;;;;9.48;4.68;;;;;;;3.47;77.72;97313.25;5014631;28;20362;-55
2021/11/27 10:45:31;;;;;;;9.35;5.63;;;;;;;3.46;77.21;97311.53;5014874;28;20037;-55
2021/11/27 10:48:35;;;;;;;12.93;6.43;;;;;;;3.46;77.76;97312.38;5014520;28;20045;-54
2021/11/27 10:51:05;;;;;;;9.10;5.55;;;;;;;3.45;77.63;97310.66;4982343;28;20057;-55
2021/11/27 10:53:35;;;;;;;11.57;5.60;;;;;;;3.47;77.54;97314.09;5014091;28;20072;-55
2021/11/27 10:56:09;;;;;;;22.02;6.05;;;;;;;3.46;76.98;97319.22;5014285;28;20083;-55
2021/11/27 10:58:59;;;;;;;15.13;6.80;;;;;;;3.47;77.68;97319.22;5014325;28;20050;-55
2021/11/27 11:01:25;;;;;;;14.00;5.53;;;;;;;3.52;77.10;97320.94;5013992;28;20418;-55
2021/11/27 11:04:14;;;;;;;12.13;5.25;;;;;;;3.54;77.31;97322.63;4997443;28;20056;-55
2021/11/27 11:06:51;;;;;;;12.50;6.10;;;;;;;3.58;77.90;97326.91;5013781;28;20034;-55
2021/11/27 11:09:24;;;;;;;12.85;5.72;;;;;;;3.61;76.97;97328.59;4997858;28;20129;-56
2021/11/27 11:11:59;;;;;;;13.52;5.75;;;;;;;3.60;77.01;97325.19;4997601;28;20524;-55
2021/11/27 11:14:32;;;;;;;12.63;4.75;;;;;;;3.61;76.90;97329.47;4998235;28;20033;-55
2021/11/27 11:17:05;;;;;;;14.68;6.10;;;;;;;3.60;77.38;97340.56;5014093;28;20026;-56
2021/11/27 11:19:37;;;;;;;12.50;5.45;;;;;;;3.59;76.63;97343.97;5014439;28;20084;-56
2021/11/27 11:22:17;;;;;;;10.45;5.53;;;;;;;3.58;77.00;97333.75;5015088;28;20030;-55
2021/11/27 11:24:48;;;;;;;14.05;5.93;;;;;;;3.58;77.65;97334.59;5013674;28;20474;-55
2021/11/27 11:27:35;;;;;;;13.07;5.15;;;;;;;3.57;77.50;97338.00;4997532;28;20383;-55
2021/11/27 11:30:07;;;;;;;10.50;4.88;;;;;;;3.57;77.18;97330.31;4997328;28;20069;-55
2021/11/27 11:32:36;;;;;;;15.80;4.65;;;;;;;3.55;76.88;97336.31;5013673;28;20042;-55
2021/11/27 11:35:09;;;;;;;10.00;4.90;;;;;;;3.54;77.09;97339.72;5014478;28;20103;-55
2021/11/27 11:37:39;;;;;;;11.20;4.68;;;;;;;3.55;77.18;97341.44;5013695;28;20045;-55
2021/11/27 11:40:11;;;;;;;13.73;4.97;;;;;;;3.54;77.04;97343.13;5013722;28;20097;-55
2021/11/27 11:42:44;;;;;;;10.73;5.47;;;;;;;3.55;76.82;97347.38;5014781;28;20512;-55
2021/11/27 11:45:17;;;;;;;12.05;5.25;;;;;;;3.56;77.49;97340.56;5013443;28;20034;-55
2021/11/27 11:47:47;;;;;;;8.15;4.10;;;;;;;3.57;77.03;97348.25;4996825;28;20038;-55
2021/11/27 11:50:23;;;;;;;9.05;4.43;;;;;;;3.56;77.31;97346.53;5013420;28;20072;-55
2021/11/27 11:53:04;;;;;;;13.63;4.65;;;;;;;3.56;76.82;97350.81;5014783;28;20029;-55
2021/11/27 11:55:48;;;;;;;14.52;4.93;;;;;;;3.56;77.01;97354.22;5013248;28;20400;-56
2021/11/27 11:58:23;;;;;;;;;;;;;;;3.56;77.33;97353.38;4997694;28;20034;-54
2021/11/27 12:00:59;;;;;;;11.15;5.68;;;;;;;3.55;77.08;97354.22;4997163;28;20284;-55
2021/11/27 12:03:36;;;;;;;12.10;4.90;;;;;;;3.56;77.35;97354.22;4996829;28;20046;-54
2021/11/27 12:06:14;;;;;;;11.60;5.10;;;;;;;3.58;76.67;97357.63;5013138;28;20120;-55
2021/11/27 12:08:51;;;;;;;12.88;4.68;;;;;;;3.58;76.84;97346.56;5014751;28;20033;-56
2021/11/27 12:11:45;;;;;;;13.15;5.10;;;;;;;3.58;76.34;97351.69;4997066;28;20116;-55
2021/11/27 12:14:26;;;;;;;9.77;4.97;;;;;;;3.59;77.24;97358.47;4996888;28;20038;-55
2021/11/27 12:17:06;;;;;;;8.43;4.32;;;;;;;3.58;77.04;97355.06;4996158;28;20508;-55
2021/11/27 12:19:45;;;;;;;16.88;5.80;;;;;;;3.60;76.72;97361.06;4996910;28;20036;-55
2021/11/27 12:22:27;;;;;;;13.02;4.53;;;;;;;3.62;76.84;97361.91;5014236;28;20042;-54
2021/11/27 12:25:28;;;;;;;17.13;5.18;;;;;;;3.64;76.37;97355.09;4996417;28;20037;-55